Time;durP1;ratioP1;P1;durP2;ratioP2;P2;SDS_P1;SDS_P2;PMS_P1;PMS_P2;Temp;Humidity;BMP_temperature;BMP_pressure;BME280_temperature;BME280_humidity;BME280_pressure;Samples;Min_cycle;Max_cycle;Signal;HPM_P1;HPM_P2
2021/04/19 00:00:30;;;;;;;25.47;18.63;;;7.00;99.90;;;;;;5026750;28;20207;-80
2021/04/19 00:02:57;;;;;;;30.70;19.83;;;7.00;99.90;;;;;;5026038;28;20207;-85
2021/04/19 00:05:23;;;;;;;27.03;17.97;;;7.00;99.90;;;;;;5025841;28;20202;-81
2021/04/19 00:07:50;;;;;;;34.70;21.10;;;6.90;99.90;;;;;;5029688;28;20432;-80
2021/04/19 00:10:18;;;;;;;34.73;20.63;;;6.90;99.90;;;;;;5047304;28;20838;-84
2021/04/19 00:12:46;;;;;;;28.93;19.17;;;6.90;99.90;;;;;;5047631;28;20509;-80
2021/04/19 00:15:17;;;;;;;28.20;19.47;;;6.90;99.90;;;;;;5046281;28;20823;-82
2021/04/19 00:17:43;;;;;;;29.00;18.70;;;6.80;99.90;;;;;;5046876;28;20209;-82
2021/04/19 00:20:10;;;;;;;28.60;17.90;;;6.80;99.90;;;;;;5034172;28;20638;-81
2021/04/19 00:22:39;;;;;;;26.70;18.43;;;6.70;99.90;;;;;;5027386;28;20190;-84
2021/04/19 00:25:07;;;;;;;25.93;17.50;;;6.70;99.90;;;;;;5027609;28;21000;-86
2021/04/19 00:27:34;;;;;;;27.63;19.47;;;6.70;99.90;;;;;;5027891;28;20198;-86
2021/04/19 00:30:00;;;;;;;32.17;20.60;;;6.60;99.90;;;;;;5028023;28;20222;-86
2021/04/19 00:32:27;;;;;;;32.33;20.33;;;6.60;99.90;;;;;;5028282;28;20350;-86
2021/04/19 00:34:54;;;;;;;32.00;20.70;;;6.60;99.90;;;;;;5045051;28;20217;-88
2021/04/19 00:37:21;;;;;;;28.53;18.80;;;6.60;99.90;;;;;;5047991;28;20656;-83
2021/04/19 00:39:48;;;;;;;28.33;18.67;;;6.50;99.90;;;;;;5044084;28;20961;-81
2021/04/19 00:42:15;;;;;;;27.17;21.70;;;6.40;99.90;;;;;;5028202;28;20207;-85
2021/04/19 00:44:44;;;;;;;29.80;19.60;;;6.40;99.90;;;;;;5024874;28;20218;-82
2021/04/19 00:47:10;;;;;;;37.00;21.60;;;6.40;99.90;;;;;;5024972;28;20241;-81
2021/04/19 00:49:38;;;;;;;30.47;19.20;;;6.40;99.90;;;;;;5040218;28;20193;-86
2021/04/19 00:52:05;;;;;;;27.57;19.53;;;6.30;99.90;;;;;;5048894;28;20255;-87
2021/04/19 00:54:32;;;;;;;29.73;19.77;;;6.30;99.90;;;;;;5048264;28;20202;-87
2021/04/19 00:57:00;;;;;;;33.47;20.70;;;6.30;99.90;;;;;;5048166;28;20202;-86
2021/04/19 00:59:26;;;;;;;32.57;20.33;;;6.30;99.90;;;;;;5047413;28;20225;-87
2021/04/19 01:01:53;;;;;;;34.57;22.13;;;6.30;99.90;;;;;;5048354;28;20202;-85
2021/04/19 01:04:20;;;;;;;32.30;21.03;;;6.20;99.90;;;;;;5036473;28;20709;-87
2021/04/19 01:06:48;;;;;;;39.27;22.33;;;6.20;99.90;;;;;;5028256;28;20206;-86
2021/04/19 01:09:15;;;;;;;35.33;21.30;;;6.10;99.90;;;;;;5029098;28;20207;-81
2021/04/19 01:11:41;;;;;;;31.87;20.57;;;6.10;99.90;;;;;;5029651;28;20627;-79
2021/04/19 01:14:08;;;;;;;39.70;23.43;;;6.10;99.90;;;;;;5032043;28;20222;-85
2021/04/19 01:16:34;;;;;;;32.73;22.17;;;6.10;99.90;;;;;;5033868;28;20202;-86
2021/04/19 01:19:00;;;;;;;34.93;21.80;;;6.10;99.90;;;;;;5032572;28;20222;-86
2021/04/19 01:21:28;;;;;;;36.20;23.03;;;6.00;99.90;;;;;;5032451;28;20214;-87
2021/04/19 01:23:54;;;;;;;36.43;21.77;;;6.00;99.90;;;;;;5030908;28;20603;-79
2021/04/19 01:26:20;;;;;;;32.77;21.70;;;6.00;99.90;;;;;;5031938;28;20320;-84
2021/04/19 01:28:47;;;;;;;33.80;21.37;;;5.90;99.90;;;;;;5030817;28;20194;-82
2021/04/19 01:31:13;;;;;;;29.30;18.67;;;5.90;99.90;;;;;;5032665;28;20285;-86
2021/04/19 01:33:40;;;;;;;28.03;18.93;;;5.90;99.90;;;;;;5032817;28;20206;-83
2021/04/19 01:36:06;;;;;;;30.93;20.47;;;5.80;99.90;;;;;;5047228;28;20225;-85
2021/04/19 01:38:34;;;;;;;37.07;22.23;;;5.90;99.90;;;;;;5052758;28;20710;-86
2021/04/19 01:41:00;;;;;;;33.40;21.03;;;5.80;99.90;;;;;;5052324;28;20213;-81
2021/04/19 01:43:26;;;;;;;31.63;19.23;;;5.80;99.90;;;;;;5052622;28;20829;-85
2021/04/19 01:45:53;;;;;;;30.13;18.83;;;5.80;99.90;;;;;;5048996;28;20213;-87
2021/04/19 01:48:20;;;;;;;27.03;18.47;;;5.70;99.90;;;;;;5031730;28;20199;-85
2021/04/19 01:50:48;;;;;;;35.70;21.70;;;5.70;99.90;;;;;;5032252;28;20221;-87
2021/04/19 01:53:15;;;;;;;30.20;19.57;;;5.70;99.90;;;;;;5032036;28;20195;-87
2021/04/19 01:55:43;;;;;;;30.63;19.50;;;5.70;99.90;;;;;;5032155;28;20213;-86
2021/04/19 01:58:12;;;;;;;31.27;20.77;;;5.70;99.90;;;;;;5031761;28;20215;-83
2021/04/19 02:00:41;;;;;;;33.70;22.50;;;5.70;99.90;;;;;;5031683;28;20236;-80
2021/04/19 02:03:34;;;;;;;31.23;20.10;;;5.60;99.90;;;;;;5032521;28;20199;-82
2021/04/19 02:06:05;;;;;;;30.00;19.40;;;5.60;99.90;;;;;;5030811;28;20194;-86
2021/04/19 02:08:38;;;;;;;28.97;18.43;;;5.60;99.90;;;;;;5031236;28;20199;-87
2021/04/19 02:11:20;;;;;;;26.93;18.70;;;5.50;99.90;;;;;;5030575;28;20245;-85
2021/04/19 02:13:57;;;;;;;30.20;18.87;;;5.50;99.90;;;;;;5031603;28;20579;-86
2021/04/19 02:16:32;;;;;;;31.77;20.27;;;5.50;99.90;;;;;;5031236;28;20210;-84
2021/04/19 02:19:03;;;;;;;29.50;19.63;;;5.40;99.90;;;;;;5030818;28;20688;-86
2021/04/19 02:21:36;;;;;;;30.33;19.07;;;5.40;99.90;;;;;;5031093;28;20202;-85
2021/04/19 02:24:10;;;;;;;33.37;21.70;;;5.40;99.90;;;;;;5042478;28;20209;-86
2021/04/19 02:26:45;;;;;;;28.80;19.33;;;5.40;99.90;;;;;;5048855;28;20240;-86
2021/04/19 02:29:14;;;;;;;36.23;22.03;;;5.40;99.90;;;;;;5051391;28;20232;-84
2021/04/19 02:31:43;;;;;;;34.03;21.60;;;5.40;99.90;;;;;;5032707;28;20222;-85
2021/04/19 02:34:14;;;;;;;38.43;23.53;;;5.40;99.90;;;;;;5035785;28;20228;-81
2021/04/19 02:36:43;;;;;;;35.23;21.73;;;5.40;99.90;;;;;;5051724;28;20194;-83
2021/04/19 02:39:10;;;;;;;38.93;23.00;;;5.40;99.90;;;;;;5037052;28;20242;-81
2021/04/19 02:41:38;;;;;;;35.23;21.53;;;5.40;99.90;;;;;;5028794;28;20214;-85
2021/04/19 02:44:07;;;;;;;40.67;22.67;;;5.40;99.90;;;;;;5031652;28;20261;-87
2021/04/19 02:46:34;;;;;;;40.47;22.97;;;5.40;99.90;;;;;;5030618;28;20677;-86
2021/04/19 02:49:01;;;;;;;40.50;24.10;;;5.40;99.90;;;;;;5048345;28;20648;-87
2021/04/19 02:51:29;;;;;;;36.13;22.27;;;5.40;99.90;;;;;;5051449;28;20590;-85
2021/04/19 02:53:57;;;;;;;37.27;21.63;;;5.40;99.90;;;;;;5050643;28;20312;-86
2021/04/19 02:56:24;;;;;;;37.03;22.30;;;5.40;99.90;;;;;;5050633;28;20228;-86
2021/04/19 02:58:55;;;;;;;39.47;22.13;;;5.40;99.90;;;;;;5050279;28;20226;-82
2021/04/19 03:01:25;;;;;;;36.50;22.83;;;5.40;99.90;;;;;;5042262;28;20261;-84
2021/04/19 03:03:53;;;;;;;37.97;21.50;;;5.40;99.90;;;;;;5030702;28;20210;-85
2021/04/19 03:06:20;;;;;;;35.03;20.67;;;5.40;99.90;;;;;;5029562;28;20206;-85
2021/04/19 03:08:49;;;;;;;35.17;21.20;;;5.30;99.90;;;;;;5026367;28;20613;-83
2021/04/19 03:11:21;;;;;;;38.50;22.20;;;5.30;99.90;;;;;;5025456;28;20517;-85
2021/04/19 03:13:49;;;;;;;36.13;22.07;;;5.30;99.90;;;;;;5025099;28;20277;-85
2021/04/19 03:16:18;;;;;;;36.37;21.30;;;5.30;99.90;;;;;;5027755;28;20206;-85
2021/04/19 03:18:47;;;;;;;34.23;20.60;;;5.30;99.90;;;;;;5024799;28;20226;-85
2021/04/19 03:21:16;;;;;;;32.10;20.93;;;5.20;99.90;;;;;;5025610;28;20206;-86
2021/04/19 03:23:47;;;;;;;33.40;20.17;;;5.30;99.90;;;;;;5024276;28;20602;-85
2021/04/19 03:26:14;;;;;;;31.37;19.67;;;5.20;99.90;;;;;;5024572;28;20654;-84
2021/04/19 03:28:44;;;;;;;32.83;18.87;;;5.20;99.90;;;;;;5025173;28;20207;-85
2021/04/19 03:31:17;;;;;;;29.60;18.90;;;5.20;99.90;;;;;;5035489;28;20210;-85
2021/04/19 03:33:46;;;;;;;29.47;18.60;;;5.20;99.90;;;;;;5047513;28;20265;-84
2021/04/19 03:36:16;;;;;;;32.90;20.67;;;5.10;99.90;;;;;;5045946;28;20213;-85
2021/04/19 03:38:45;;;;;;;40.70;22.93;;;5.20;99.90;;;;;;5026848;28;20223;-85
2021/04/19 03:41:13;;;;;;;33.47;20.47;;;5.10;99.90;;;;;;5027550;28;20206;-85
2021/04/19 03:43:40;;;;;;;32.53;21.57;;;5.10;99.90;;;;;;5028525;28;20595;-84
2021/04/19 03:46:08;;;;;;;31.77;19.53;;;5.10;99.90;;;;;;5027202;28;20199;-82
2021/04/19 03:48:40;;;;;;;36.13;20.73;;;5.10;99.90;;;;;;5026825;28;20203;-85
2021/04/19 03:51:10;;;;;;;38.00;21.87;;;5.10;99.90;;;;;;5026332;28;20220;-84
2021/04/19 03:53:39;;;;;;;34.33;20.27;;;5.10;99.90;;;;;;5025605;28;20214;-83
2021/04/19 03:56:07;;;;;;;29.47;18.63;;;5.10;99.90;;;;;;5025388;28;20211;-83
2021/04/19 03:58:35;;;;;;;35.60;19.77;;;5.10;99.90;;;;;;5024978;28;20619;-81
2021/04/19 04:01:05;;;;;;;31.40;19.93;;;5.10;99.90;;;;;;5024857;28;20223;-83
2021/04/19 04:03:32;;;;;;;37.50;21.03;;;5.10;99.90;;;;;;5024951;28;20264;-82
2021/04/19 04:06:00;;;;;;;28.97;19.30;;;5.00;99.90;;;;;;5025209;28;20210;-84
2021/04/19 04:08:29;;;;;;;33.43;20.77;;;5.00;99.90;;;;;;5025223;28;20207;-82
2021/04/19 04:10:56;;;;;;;31.27;19.73;;;5.00;99.90;;;;;;5025320;28;20221;-83
2021/04/19 04:13:23;;;;;;;32.90;18.77;;;5.00;99.90;;;;;;5026127;28;20491;-83
2021/04/19 04:15:51;;;;;;;29.03;18.07;;;5.00;99.90;;;;;;5026001;28;20696;-84
2021/04/19 04:18:18;;;;;;;31.70;18.50;;;5.00;99.90;;;;;;5026389;28;20280;-84
2021/04/19 04:20:45;;;;;;;28.40;17.10;;;5.00;99.90;;;;;;5026050;28;20198;-81
2021/04/19 04:23:11;;;;;;;29.57;17.07;;;5.00;99.90;;;;;;5025047;28;20317;-83
2021/04/19 04:25:40;;;;;;;30.53;16.50;;;5.00;99.90;;;;;;5025579;28;20238;-82
2021/04/19 04:28:07;;;;;;;30.20;18.37;;;5.00;99.90;;;;;;5025150;28;20594;-82
2021/04/19 04:30:35;;;;;;;38.33;22.07;;;4.90;99.90;;;;;;5026326;28;20195;-81
2021/04/19 04:33:02;;;;;;;34.10;20.57;;;5.00;99.90;;;;;;5045950;28;20213;-82
2021/04/19 04:35:29;;;;;;;35.67;21.43;;;4.90;99.90;;;;;;5045317;28;20653;-83
2021/04/19 04:37:57;;;;;;;30.13;19.40;;;5.00;99.90;;;;;;5044195;28;20679;-84
2021/04/19 04:40:23;;;;;;;32.13;19.67;;;5.00;99.90;;;;;;5025735;28;20860;-84
2021/04/19 04:42:53;;;;;;;33.23;20.50;;;4.90;99.90;;;;;;5026034;28;20202;-85
2021/04/19 04:45:19;;;;;;;41.57;22.17;;;5.00;99.90;;;;;;5025672;28;20203;-85
2021/04/19 04:47:52;;;;;;;34.87;21.67;;;4.90;99.90;;;;;;5025978;28;20918;-81
2021/04/19 04:50:22;;;;;;;37.23;20.77;;;5.00;99.90;;;;;;5026176;28;20205;-84
2021/04/19 04:52:55;;;;;;;33.67;20.80;;;5.00;99.90;;;;;;5025053;28;20260;-82
2021/04/19 04:55:23;;;;;;;31.13;19.73;;;5.10;99.90;;;;;;5025843;28;20213;-83
2021/04/19 04:57:51;;;;;;;31.10;18.77;;;5.10;99.90;;;;;;5025880;28;20214;-84
2021/04/19 05:00:21;;;;;;;34.87;20.93;;;5.10;99.90;;;;;;5025588;28;20226;-80
2021/04/19 05:02:49;;;;;;;48.90;22.10;;;5.10;99.90;;;;;;5027058;28;20284;-79
2021/04/19 05:05:17;;;;;;;30.87;19.70;;;5.20;99.90;;;;;;5025894;28;20202;-81
2021/04/19 05:07:44;;;;;;;33.77;18.83;;;5.20;99.90;;;;;;5038417;28;20265;-81
2021/04/19 05:10:11;;;;;;;34.00;20.00;;;5.20;99.90;;;;;;5046214;28;20206;-83
2021/04/19 05:12:38;;;;;;;36.50;20.07;;;5.20;99.90;;;;;;5042879;28;20685;-83
2021/04/19 05:15:09;;;;;;;33.23;20.43;;;5.20;99.90;;;;;;5044764;28;20626;-82
2021/04/19 05:17:36;;;;;;;33.23;18.37;;;5.30;99.90;;;;;;5045830;28;20226;-81
2021/04/19 05:20:03;;;;;;;37.77;22.03;;;5.30;99.90;;;;;;5042772;28;21029;-82
2021/04/19 05:22:29;;;;;;;38.43;19.60;;;5.40;99.90;;;;;;5024561;28;20252;-85
2021/04/19 05:24:55;;;;;;;35.03;21.30;;;5.40;99.90;;;;;;5025198;28;20991;-82
2021/04/19 05:27:22;;;;;;;33.03;18.53;;;5.50;99.90;;;;;;5024407;28;20260;-81
2021/04/19 05:29:49;;;;;;;41.00;20.30;;;5.60;99.90;;;;;;5024668;28;20198;-82
2021/04/19 05:32:18;;;;;;;38.47;20.23;;;5.70;99.90;;;;;;5021902;28;20252;-82
2021/04/19 05:34:45;;;;;;;33.53;19.70;;;5.70;99.90;;;;;;5024344;28;20199;-82
2021/04/19 05:37:12;;;;;;;34.83;21.83;;;5.80;99.90;;;;;;5026965;28;20225;-85
2021/04/19 05:39:39;;;;;;;41.83;21.43;;;5.90;99.90;;;;;;5026571;28;20234;-84
2021/04/19 05:42:06;;;;;;;37.27;21.17;;;6.00;99.90;;;;;;5026503;28;20720;-81
2021/04/19 05:44:34;;;;;;;33.07;21.30;;;6.10;99.90;;;;;;5026797;28;20282;-84
2021/04/19 05:47:01;;;;;;;33.10;19.80;;;6.10;99.90;;;;;;5026594;28;20737;-82
2021/04/19 05:49:29;;;;;;;34.47;19.83;;;6.20;99.90;;;;;;5025415;28;20311;-83
2021/04/19 05:51:57;;;;;;;36.57;20.53;;;6.20;99.90;;;;;;5025914;28;20269;-83
2021/04/19 05:54:24;;;;;;;37.80;21.10;;;6.30;99.90;;;;;;5025069;28;20256;-81
2021/04/19 05:57:06;;;;;;;39.10;21.73;;;6.40;99.90;;;;;;5025506;28;20290;-80
2021/04/19 05:59:41;;;;;;;38.57;21.50;;;6.50;99.90;;;;;;5025332;28;20222;-84
2021/04/19 06:02:09;;;;;;;37.30;21.23;;;6.50;99.90;;;;;;5029529;28;20206;-83
2021/04/19 06:04:42;;;;;;;37.70;22.80;;;6.60;99.90;;;;;;5028810;28;20199;-83
2021/04/19 06:07:15;;;;;;;36.50;21.17;;;6.70;99.90;;;;;;5028631;28;20210;-86
2021/04/19 06:09:51;;;;;;;36.23;21.53;;;6.80;99.90;;;;;;5027966;28;20493;-84
2021/04/19 06:12:21;;;;;;;32.97;20.20;;;6.90;99.90;;;;;;5028278;28;20229;-83
2021/04/19 06:14:51;;;;;;;41.13;23.30;;;7.00;99.90;;;;;;5027926;28;20209;-81
2021/04/19 06:17:20;;;;;;;41.47;22.23;;;7.10;99.90;;;;;;5029029;28;20202;-81
2021/04/19 06:19:48;;;;;;;36.03;22.33;;;7.30;99.90;;;;;;5028206;28;20237;-86
2021/04/19 06:22:16;;;;;;;38.60;23.07;;;7.40;99.90;;;;;;5030805;28;20553;-83
2021/04/19 06:24:46;;;;;;;34.20;20.83;;;7.40;99.90;;;;;;5030188;28;20194;-85
2021/04/19 06:27:17;;;;;;;36.20;20.80;;;7.50;99.90;;;;;;5028439;28;20258;-83
2021/04/19 06:29:44;;;;;;;33.63;21.63;;;7.50;99.90;;;;;;5027266;28;20229;-84
2021/04/19 06:32:12;;;;;;;32.83;20.50;;;7.60;99.90;;;;;;5029129;28;20217;-85
2021/04/19 06:34:38;;;;;;;36.17;20.63;;;7.60;99.90;;;;;;5027531;28;20206;-81
2021/04/19 06:37:07;;;;;;;38.17;21.57;;;7.70;99.90;;;;;;5030734;28;20213;-84
2021/04/19 06:39:35;;;;;;;34.43;22.07;;;7.80;99.90;;;;;;5029640;28;20538;-84
2021/04/19 06:42:02;;;;;;;35.67;20.63;;;7.90;99.90;;;;;;5029657;28;20210;-84
2021/04/19 06:44:30;;;;;;;29.80;19.93;;;8.00;99.90;;;;;;5027758;28;20336;-85
2021/04/19 06:46:58;;;;;;;34.60;21.40;;;8.10;99.90;;;;;;5042434;28;20237;-87
2021/04/19 06:49:24;;;;;;;32.37;20.23;;;8.00;99.90;;;;;;5047299;28;20784;-86
2021/04/19 06:51:52;;;;;;;35.60;20.23;;;8.10;99.90;;;;;;5050070;28;20220;-90
2021/04/19 06:54:19;;;;;;;34.27;20.27;;;8.10;99.90;;;;;;5050588;28;20264;-90
2021/04/19 06:56:47;;;;;;;30.43;19.50;;;8.10;99.90;;;;;;5051706;28;20202;-90
2021/04/19 06:59:16;;;;;;;31.83;18.73;;;8.10;99.90;;;;;;5028654;28;20534;-84
2021/04/19 07:01:45;;;;;;;32.77;18.53;;;8.10;99.90;;;;;;5027372;28;20220;-88
2021/04/19 07:04:13;;;;;;;35.20;20.60;;;8.20;99.90;;;;;;5028908;28;20266;-88
2021/04/19 07:06:40;;;;;;;38.37;20.80;;;8.30;99.90;;;;;;5027353;28;20194;-90
2021/04/19 07:09:16;;;;;;;31.47;20.40;;;8.40;99.90;;;;;;5030497;28;20203;-83
2021/04/19 07:11:44;;;;;;;28.20;20.00;;;8.40;99.90;;;;;;5039615;28;20228;-85
2021/04/19 07:14:12;;;;;;;39.60;21.43;;;8.50;99.90;;;;;;5051297;28;20202;-85
2021/04/19 07:16:38;;;;;;;32.97;20.33;;;8.60;99.90;;;;;;5039350;28;20210;-84
2021/04/19 07:19:06;;;;;;;30.73;20.10;;;8.70;99.90;;;;;;5026605;28;20218;-82
2021/04/19 07:21:33;;;;;;;33.23;21.43;;;8.80;99.90;;;;;;5027422;28;20209;-84
2021/04/19 07:24:01;;;;;;;32.80;20.13;;;9.00;99.90;;;;;;5028186;28;20198;-81
2021/04/19 07:26:29;;;;;;;28.67;21.20;;;9.00;99.90;;;;;;5016108;28;20371;-81
2021/04/19 07:28:57;;;;;;;33.80;21.50;;;9.20;99.90;;;;;;5048443;28;20194;-81
2021/04/19 07:31:24;;;;;;;33.33;21.27;;;9.60;99.90;;;;;;5048261;28;20259;-80
2021/04/19 07:33:50;;;;;;;36.37;22.10;;;10.00;99.90;;;;;;5044279;28;20206;-81
2021/04/19 07:36:22;;;;;;;31.77;20.00;;;10.40;99.90;;;;;;5046002;28;20213;-80
2021/04/19 07:38:48;;;;;;;23.30;17.27;;;10.60;99.90;;;;;;5046749;28;20229;-82
2021/04/19 07:41:15;;;;;;;26.43;18.03;;;10.60;99.90;;;;;;5048011;28;20229;-87
2021/04/19 07:43:43;;;;;;;27.13;18.57;;;10.70;99.90;;;;;;5038098;28;20202;-87
2021/04/19 07:46:14;;;;;;;25.43;16.73;;;10.90;99.90;;;;;;5043369;28;20229;-81
2021/04/19 07:48:42;;;;;;;27.30;19.40;;;11.20;99.90;;;;;;5026372;28;20298;-83
2021/04/19 07:51:26;;;;;;;24.20;17.37;;;11.50;99.90;;;;;;5025501;28;20199;-84
2021/04/19 07:54:20;;;;;;;25.23;17.67;;;11.60;99.90;;;;;;5027053;28;20206;-81
2021/04/19 07:57:05;;;;;;;20.83;16.30;;;11.80;99.90;;;;;;5024942;28;20275;-85
2021/04/19 07:59:33;;;;;;;24.87;17.30;;;11.80;99.90;;;;;;5043361;28;20226;-79
2021/04/19 08:02:03;;;;;;;24.07;18.23;;;12.00;99.90;;;;;;5041998;28;20231;-80
2021/04/19 08:04:31;;;;;;;22.13;16.97;;;12.20;99.90;;;;;;5037590;28;20568;-80
2021/04/19 08:06:58;;;;;;;22.27;17.13;;;12.50;99.90;;;;;;5032565;28;20214;-83
2021/04/19 08:09:25;;;;;;;22.67;16.80;;;12.80;99.90;;;;;;5026692;28;20922;-80
2021/04/19 08:11:57;;;;;;;21.20;16.07;;;13.00;99.90;;;;;;5025069;28;20218;-79
2021/04/19 08:14:23;;;;;;;21.77;16.53;;;13.20;99.90;;;;;;5025788;28;20229;-83
2021/04/19 08:17:06;;;;;;;19.23;15.43;;;13.30;99.90;;;;;;5023597;28;20480;-82
2021/04/19 08:19:34;;;;;;;21.13;16.37;;;13.40;99.90;;;;;;5025239;28;20618;-82
2021/04/19 08:22:16;;;;;;;23.40;16.50;;;13.60;99.90;;;;;;5025333;28;20210;-83
2021/04/19 08:24:43;;;;;;;20.23;16.80;;;13.70;99.90;;;;;;5031262;28;20194;-80
2021/04/19 08:27:22;;;;;;;21.40;15.80;;;13.80;99.90;;;;;;5044679;28;20232;-82
2021/04/19 08:29:49;;;;;;;19.30;16.90;;;14.00;99.90;;;;;;5041955;28;20194;-82
2021/04/19 08:32:19;;;;;;;18.33;15.60;;;14.10;99.90;;;;;;5025794;28;20202;-82
2021/04/19 08:34:49;;;;;;;19.13;15.00;;;14.30;99.90;;;;;;5025036;28;20198;-82
2021/04/19 08:37:18;;;;;;;16.80;14.10;;;14.50;99.90;;;;;;5026689;28;20210;-83
2021/04/19 08:39:45;;;;;;;16.07;13.63;;;14.80;99.90;;;;;;5024164;28;20215;-81
2021/04/19 08:42:13;;;;;;;16.60;14.33;;;15.10;99.90;;;;;;5024564;28;20233;-84
2021/04/19 08:44:41;;;;;;;16.83;13.87;;;15.20;99.90;;;;;;5023705;28;20484;-82
2021/04/19 08:47:09;;;;;;;15.53;13.03;;;15.30;99.90;;;;;;5023884;28;20206;-82
2021/04/19 08:49:36;;;;;;;19.23;12.80;;;15.10;99.90;;;;;;5023503;28;20826;-80
2021/04/19 08:52:03;;;;;;;15.30;13.20;;;15.00;99.90;;;;;;5039810;28;20715;-79
2021/04/19 08:54:29;;;;;;;16.60;13.77;;;15.00;99.90;;;;;;5043645;28;20201;-80
2021/04/19 08:56:56;;;;;;;16.60;12.40;;;15.10;99.90;;;;;;5043779;28;20514;-80
2021/04/19 08:59:24;;;;;;;16.87;13.50;;;15.20;99.90;;;;;;5043675;28;20224;-82
2021/04/19 09:01:53;;;;;;;14.10;12.57;;;15.30;99.90;;;;;;5033622;28;20252;-83
2021/04/19 09:04:22;;;;;;;14.70;12.77;;;15.60;99.90;;;;;;5023276;28;20228;-82
2021/04/19 09:06:51;;;;;;;14.97;12.47;;;15.90;99.90;;;;;;5024945;28;20220;-81
2021/04/19 09:09:40;;;;;;;14.77;12.63;;;16.20;99.90;;;;;;5024808;28;20210;-82
2021/04/19 09:12:24;;;;;;;13.70;12.30;;;16.40;99.90;;;;;;5024886;28;20672;-85
2021/04/19 09:14:51;;;;;;;16.73;13.20;;;16.50;99.90;;;;;;5025260;28;20205;-81
2021/04/19 09:17:26;;;;;;;14.95;11.82;;;16.50;99.90;;;;;;5024859;28;20210;-82
2021/04/19 09:19:57;;;;;;;15.23;12.05;;;16.70;99.90;;;;;;5024749;28;20579;-84
2021/04/19 09:22:25;;;;;;;15.95;12.80;;;17.00;99.90;;;;;;5022862;28;20203;-80
2021/04/19 09:25:00;;;;;;;13.65;12.25;;;17.00;99.90;;;;;;5023191;28;20626;-78
2021/04/19 09:27:48;;;;;;;15.20;12.57;;;16.70;99.90;;;;;;5023381;28;20781;-82
2021/04/19 09:30:32;;;;;;;17.02;13.55;;;16.80;99.90;;;;;;5025048;28;20618;-80
2021/04/19 09:33:25;;;;;;;14.30;11.98;;;16.70;99.90;;;;;;5026329;28;20236;-84
2021/04/19 09:35:53;;;;;;;13.93;11.98;;;16.60;99.90;;;;;;5031796;28;20676;-86
2021/04/19 09:38:55;;;;;;;12.63;11.32;;;16.70;99.90;;;;;;5032734;28;20210;-83
2021/04/19 09:41:23;;;;;;;14.65;12.35;;;17.00;99.90;;;;;;5026939;28;20206;-85
2021/04/19 09:43:54;;;;;;;13.93;12.43;;;17.10;99.90;;;;;;5033452;28;20240;-85
2021/04/19 09:46:31;;;;;;;15.05;12.93;;;17.20;99.90;;;;;;5031473;28;20289;-85
2021/04/19 09:49:03;;;;;;;18.45;13.43;;;17.30;99.90;;;;;;5032194;28;20290;-85
2021/04/19 09:51:36;;;;;;;15.23;13.45;;;16.80;99.90;;;;;;5046396;28;20264;-84
2021/04/19 09:54:05;;;;;;;16.58;13.20;;;16.70;99.90;;;;;;5053113;28;20204;-83
2021/04/19 09:56:35;;;;;;;17.25;12.57;;;16.70;99.90;;;;;;5051352;28;20216;-86
2021/04/19 09:59:02;;;;;;;12.68;11.38;;;16.80;99.90;;;;;;5039777;28;20221;-83
2021/04/19 10:01:30;;;;;;;13.30;11.90;;;16.90;99.90;;;;;;5031968;28;20312;-83
2021/04/19 10:03:58;;;;;;;13.02;11.75;;;16.90;99.90;;;;;;5031289;28;20221;-86
2021/04/19 10:06:26;;;;;;;14.00;12.48;;;17.00;99.90;;;;;;5031726;28;20206;-87
2021/04/19 10:08:53;;;;;;;14.52;12.68;;;17.00;99.90;;;;;;5030923;28;20229;-87
2021/04/19 10:11:24;;;;;;;14.48;10.80;;;17.00;99.90;;;;;;5031172;28;20198;-83
2021/04/19 10:13:52;;;;;;;12.13;10.65;;;17.10;99.90;;;;;;5031365;28;20207;-86
2021/04/19 10:16:19;;;;;;;12.43;11.15;;;17.10;99.90;;;;;;5031656;28;20256;-86
2021/04/19 10:18:50;;;;;;;13.13;10.73;;;17.10;99.90;;;;;;5030742;28;20202;-85
2021/04/19 10:21:24;;;;;;;10.75;9.65;;;17.30;99.90;;;;;;5029109;28;20298;-85
2021/04/19 10:23:51;;;;;;;11.70;10.48;;;17.30;99.90;;;;;;5029550;28;20214;-84
2021/04/19 10:26:17;;;;;;;11.02;9.93;;;17.30;99.90;;;;;;5030876;28;20242;-85
2021/04/19 10:28:46;;;;;;;11.48;10.27;;;17.20;99.90;;;;;;5030096;28;20195;-85
2021/04/19 10:31:19;;;;;;;10.88;9.20;;;17.10;99.90;;;;;;5031395;28;20934;-83
2021/04/19 10:33:48;;;;;;;11.85;9.40;;;17.10;99.90;;;;;;5031878;28;20234;-84
2021/04/19 10:36:17;;;;;;;11.90;10.63;;;17.10;99.90;;;;;;5031794;28;20229;-84
2021/04/19 10:38:45;;;;;;;11.40;9.53;;;16.90;99.90;;;;;;5030504;28;20960;-84
2021/04/19 10:41:13;;;;;;;11.10;9.90;;;16.90;99.90;;;;;;5031181;28;20697;-85
2021/04/19 10:43:41;;;;;;;12.30;11.00;;;16.80;99.90;;;;;;5031784;28;20206;-85
2021/04/19 10:46:25;;;;;;;12.82;10.05;;;16.70;99.90;;;;;;5030285;28;20210;-83
2021/04/19 10:48:54;;;;;;;12.18;10.82;;;16.80;99.90;;;;;;5029600;28;20221;-82
2021/04/19 10:51:22;;;;;;;11.50;9.98;;;17.00;99.90;;;;;;5028089;28;20202;-83
2021/04/19 10:53:49;;;;;;;11.27;9.68;;;17.20;99.90;;;;;;5027900;28;20206;-82
2021/04/19 10:56:21;;;;;;;9.55;8.45;;;17.40;99.90;;;;;;5030388;28;20820;-82
2021/04/19 10:58:49;;;;;;;11.50;9.68;;;17.80;99.90;;;;;;5031081;28;20213;-84
2021/04/19 11:01:22;;;;;;;10.77;9.30;;;17.50;99.90;;;;;;5031019;28;20235;-83
2021/04/19 11:03:49;;;;;;;10.90;9.63;;;17.30;99.90;;;;;;5028993;28;20602;-82
2021/04/19 11:06:17;;;;;;;10.60;9.00;;;17.20;99.90;;;;;;5028178;28;20187;-83
2021/04/19 11:08:55;;;;;;;15.98;10.82;;;17.30;99.90;;;;;;5028735;28;20490;-82
2021/04/19 11:11:23;;;;;;;11.23;9.63;;;17.40;99.90;;;;;;5034427;28;20300;-81
2021/04/19 11:13:51;;;;;;;12.13;9.38;;;17.50;99.90;;;;;;5046181;28;20520;-81
2021/04/19 11:16:22;;;;;;;11.82;10.02;;;18.00;99.90;;;;;;5046683;28;20202;-83
2021/04/19 11:18:50;;;;;;;11.25;9.85;;;18.40;99.90;;;;;;5026033;28;20268;-83
2021/04/19 11:21:30;;;;;;;10.60;9.23;;;18.20;99.90;;;;;;5026475;28;20230;-82
2021/04/19 11:24:11;;;;;;;12.23;8.90;;;18.10;99.90;;;;;;5027652;28;20205;-81
2021/04/19 11:26:39;;;;;;;11.07;9.98;;;18.30;99.90;;;;;;5026718;28;20261;-82
2021/04/19 11:29:06;;;;;;;13.35;9.88;;;18.20;99.90;;;;;;5027333;28;20198;-81
2021/04/19 11:31:43;;;;;;;11.05;9.95;;;17.80;99.90;;;;;;5028653;28;20582;-85
2021/04/19 11:34:11;;;;;;;10.55;9.45;;;17.90;99.90;;;;;;5027831;28;20250;-83
2021/04/19 11:36:40;;;;;;;10.35;9.05;;;18.00;99.90;;;;;;5026236;28;20668;-84
2021/04/19 11:39:17;;;;;;;9.27;7.90;;;18.40;99.90;;;;;;5027966;28;20226;-82
2021/04/19 11:41:45;;;;;;;10.93;9.82;;;18.80;99.90;;;;;;5028642;28;20202;-83
2021/04/19 11:44:11;;;;;;;10.50;9.40;;;18.90;99.90;;;;;;5028824;28;20199;-84
2021/04/19 11:46:43;;;;;;;12.40;10.10;;;18.70;99.90;;;;;;5029542;28;20205;-83
2021/04/19 11:49:14;;;;;;;11.05;9.93;;;18.80;99.90;;;;;;5044122;28;20205;-83
2021/04/19 11:51:41;;;;;;;11.98;10.77;;;18.40;99.90;;;;;;5044895;28;20867;-82
2021/04/19 11:54:07;;;;;;;10.65;9.55;;;18.30;99.90;;;;;;5045851;28;20210;-83
2021/04/19 11:56:34;;;;;;;11.48;10.35;;;18.40;99.90;;;;;;5046552;28;20225;-82
2021/04/19 11:59:00;;;;;;;10.27;9.27;;;18.60;99.90;;;;;;5046566;28;20369;-81
2021/04/19 12:01:27;;;;;;;9.90;8.85;;;18.80;99.90;;;;;;5045705;28;20489;-83
2021/04/19 12:03:55;;;;;;;11.82;10.02;;;18.90;99.90;;;;;;5028386;28;20225;-81
2021/04/19 12:06:23;;;;;;;11.07;9.82;;;18.90;99.90;;;;;;5026641;28;20207;-80
2021/04/19 12:08:51;;;;;;;11.82;10.30;;;18.90;99.90;;;;;;5028582;28;20618;-82
2021/04/19 12:11:20;;;;;;;11.60;10.43;;;18.40;99.90;;;;;;5046604;28;20198;-83
2021/04/19 12:13:47;;;;;;;10.88;9.80;;;18.40;99.90;;;;;;5032137;28;20214;-83
2021/04/19 12:16:13;;;;;;;12.68;10.68;;;18.40;99.90;;;;;;5026589;28;20559;-81
2021/04/19 12:18:39;;;;;;;13.30;10.82;;;18.20;99.90;;;;;;5026019;28;20201;-81
2021/04/19 12:21:10;;;;;;;12.88;11.13;;;18.30;99.90;;;;;;5026113;28;20931;-82
2021/04/19 12:23:37;;;;;;;11.50;10.30;;;18.30;99.90;;;;;;5026952;28;20207;-81
2021/04/19 12:26:05;;;;;;;10.88;9.88;;;18.50;99.90;;;;;;5026139;28;20328;-80
2021/04/19 12:28:32;;;;;;;11.23;10.15;;;18.50;99.90;;;;;;5026222;28;20206;-82
2021/04/19 12:31:00;;;;;;;10.75;9.68;;;18.50;99.90;;;;;;5025128;28;20190;-80
2021/04/19 12:33:27;;;;;;;10.07;9.07;;;18.60;99.90;;;;;;5025315;28;20288;-82
2021/04/19 12:35:54;;;;;;;12.32;9.30;;;18.70;99.90;;;;;;5025052;28;20205;-83
2021/04/19 12:38:21;;;;;;;10.30;9.30;;;18.80;99.90;;;;;;5024798;28;20187;-84
2021/04/19 12:40:47;;;;;;;10.70;9.65;;;19.10;99.90;;;;;;5025272;28;20218;-82
2021/04/19 12:43:14;;;;;;;11.25;10.15;;;18.90;99.90;;;;;;5025885;28;20776;-81